Time;durP1;ratioP1;P1;durP2;ratioP2;P2;SDS_P1;SDS_P2;PMS_P1;PMS_P2;Temp;Humidity;BMP_temperature;BMP_pressure;BME280_temperature;BME280_humidity;BME280_pressure;Samples;Min_cycle;Max_cycle;Signal;HPM_P1;HPM_P2
2022/06/05 00:02:08;;;;;;;2.20;1.80;;;;;;;;;;21089008;28;20242;-80
2022/06/05 00:12:14;;;;;;;2.20;1.60;;;23.20;99.90;;;;;;21099740;28;20257;-80
2022/06/05 00:22:16;;;;;;;2.00;1.40;;;23.10;99.90;;;;;;21115190;28;20267;-79
2022/06/05 00:32:38;;;;;;;2.20;1.60;;;;;;;;;;21092711;28;20565;-76
2022/06/05 00:42:40;;;;;;;2.25;1.38;;;;;;;;;;21054565;28;20213;-77
2022/06/05 00:52:46;;;;;;;2.10;1.42;;;22.90;99.90;;;;;;21071324;28;20259;-76
2022/06/05 01:02:53;;;;;;;2.42;1.60;;;;;;;;;;21037242;28;20669;-76
2022/06/05 01:13:13;;;;;;;3.25;2.00;;;22.60;99.90;;;;;;21071143;28;20229;-76
2022/06/05 01:23:23;;;;;;;2.78;1.92;;;22.50;99.90;;;;;;21047028;28;20224;-76
2022/06/05 01:33:28;;;;;;;2.72;1.75;;;22.40;99.90;;;;;;21051563;28;20668;-75
2022/06/05 01:43:35;;;;;;;2.67;2.03;;;;;;;;;;21051298;28;20266;-76
2022/06/05 01:53:45;;;;;;;2.03;1.48;;;22.60;99.90;;;;;;21068924;28;20250;-75
2022/06/05 02:04:06;;;;;;;2.60;1.50;;;22.50;99.90;;;;;;21051210;28;20262;-75
2022/06/05 02:14:10;;;;;;;1.77;1.20;;;;;;;;;;21047458;28;20258;-75
2022/06/05 02:24:13;;;;;;;2.20;1.48;;;;;;;;;;21082682;28;20438;-75
2022/06/05 02:34:47;;;;;;;1.80;1.33;;;22.00;99.90;;;;;;21063586;28;20205;-75
2022/06/05 02:44:49;;;;;;;2.17;1.20;;;;;;;;;;21063398;28;20217;-75
2022/06/05 02:54:58;;;;;;;2.80;1.50;;;22.10;99.90;;;;;;21081127;28;20200;-75
2022/06/05 03:05:00;;;;;;;2.20;1.65;;;;;;;;;;21080063;28;20235;-75
2022/06/05 03:15:03;;;;;;;5.38;1.85;;;22.00;99.90;;;;;;21051369;28;20210;-76
2022/06/05 03:25:06;;;;;;;2.85;1.40;;;21.90;99.90;;;;;;21011348;28;20281;-75
2022/06/05 03:35:08;;;;;;;2.58;1.65;;;;;;;;;;21071583;28;20197;-75
2022/06/05 03:45:12;;;;;;;3.95;1.80;;;;;;;;;;21041710;28;20675;-75
2022/06/05 03:55:17;;;;;;;2.65;1.70;;;21.70;99.90;;;;;;21077146;28;20582;-75
2022/06/05 04:05:20;;;;;;;1.80;1.50;;;;;;;;;;21075991;28;20213;-74
2022/06/05 04:15:22;;;;;;;2.17;1.67;;;;;;;;;;21075852;28;20251;-74
2022/06/05 04:25:24;;;;;;;2.72;1.67;;;;;;;;;;21073876;28;20214;-74
2022/06/05 04:35:25;;;;;;;4.47;2.78;;;;;;;;;;21070438;28;20208;-75
2022/06/05 04:45:33;;;;;;;3.10;1.90;;;;;;;;;;21071436;28;20216;-75
2022/06/05 04:55:37;;;;;;;2.35;1.90;;;21.40;99.90;;;;;;21053656;28;20201;-74
2022/06/05 05:05:40;;;;;;;2.25;1.70;;;;;;;;;;21036151;28;20212;-75
2022/06/05 05:15:41;;;;;;;2.90;2.17;;;;;;;;;;21051519;28;20214;-75
2022/06/05 05:25:43;;;;;;;2.53;2.20;;;;;;;;;;21051206;28;20219;-75
2022/06/05 05:35:45;;;;;;;4.15;1.67;;;;;;;;;;21042691;28;20280;-75
2022/06/05 05:45:49;;;;;;;3.17;2.13;;;;;;;;;;21091007;22;20229;-72
2022/06/05 05:55:50;;;;;;;6.32;3.55;;;;;;;;;;21034834;28;20249;-72
2022/06/05 06:05:58;;;;;;;2.55;2.10;;;;;;;;;;21048586;28;20307;-72
2022/06/05 06:16:00;;;;;;;2.45;1.98;;;;;;;;;;21002829;28;20568;-72
2022/06/05 06:26:06;;;;;;;2.40;2.10;;;;;;;;;;21031007;28;20231;-71
2022/06/05 06:36:12;;;;;;;1.98;1.77;;;21.40;99.90;;;;;;21040840;28;20641;-72
2022/06/05 06:46:14;;;;;;;2.67;2.10;;;;;;;;;;21009561;28;20228;-71
2022/06/05 06:56:18;;;;;;;2.60;1.80;;;;;;;;;;21030326;28;20258;-71
2022/06/05 07:06:23;;;;;;;2.53;1.87;;;;;;;;;;21030927;28;20579;-71
2022/06/05 07:16:25;;;;;;;2.83;1.83;;;;;;;;;;21030044;28;20203;-71
2022/06/05 07:26:33;;;;;;;2.27;1.73;;;21.20;99.90;;;;;;20950187;28;20301;-72
2022/06/05 07:36:35;;;;;;;2.20;1.80;;;;;;;;;;20968220;28;20249;-73
2022/06/05 07:46:38;;;;;;;2.43;1.83;;;;;;;;;;21020048;28;20222;-72
2022/06/05 07:56:40;;;;;;;2.67;1.93;;;;;;;;;;21035140;28;20202;-73
2022/06/05 08:06:43;;;;;;;2.67;1.80;;;;;;;;;;21009823;28;20257;-73
2022/06/05 08:16:46;;;;;;;1.93;1.70;;;21.40;99.90;;;;;;21002868;28;20203;-73
2022/06/05 08:26:49;;;;;;;2.08;1.85;;;21.40;99.90;;;;;;21017760;28;20230;-73
2022/06/05 08:41:26;;;;;;;3.53;1.98;;;;;;;;;;21023297;28;20243;-73
2022/06/05 08:47:13;;;;;;;2.38;1.90;;;;;;;;;;21038607;28;20240;-72
2022/06/05 08:57:17;;;;;;;2.50;2.28;;;;;;;;;;21020310;28;20735;-73
2022/06/05 09:07:23;;;;;;;2.63;1.77;;;;;;;;;;21033468;28;20218;-72
2022/06/05 09:17:26;;;;;;;3.63;1.80;;;;;;;;;;20948127;28;20241;-72
2022/06/05 09:27:51;;;;;;;2.08;1.70;;;;;;;;;;20958158;28;20217;-73
2022/06/05 09:37:58;;;;;;;3.03;1.98;;;;;;;;;;20933233;28;20218;-72
2022/06/05 09:48:06;;;;;;;2.05;1.60;;;;;;;;;;20930352;28;20696;-72
2022/06/05 09:58:27;;;;;;;1.63;1.48;;;23.80;99.90;;;;;;20944198;28;20220;-72
2022/06/05 10:08:38;;;;;;;2.67;1.83;;;;;;;;;;20924582;28;20220;-72
2022/06/05 10:18:59;;;;;;;2.30;1.77;;;23.20;99.90;;;;;;20943388;28;20219;-72
2022/06/05 10:29:20;;;;;;;2.55;1.80;;;23.60;99.90;;;;;;20931332;28;20632;-72
2022/06/05 10:39:53;;;;;;;2.63;2.00;;;23.90;99.90;;;;;;20958419;28;20672;-71
2022/06/05 10:50:19;;;;;;;2.40;2.00;;;24.30;99.90;;;;;;20956525;28;20239;-72
2022/06/05 11:00:37;;;;;;;2.65;2.15;;;;;;;;;;20941846;28;20285;-73
2022/06/05 11:21:28;;;;;;;3.53;2.38;;;23.50;99.90;;;;;;20972374;28;20639;-72
2022/06/05 11:31:39;;;;;;;5.63;2.95;;;;;;;;;;20946489;28;20939;-73
2022/06/05 11:41:44;;;;;;;4.72;3.15;;;;;;;;;;20963969;28;20231;-71
2022/06/05 11:51:46;;;;;;;3.20;2.90;;;;;;;;;;20963464;28;20222;-72
2022/06/05 12:01:52;;;;;;;3.03;2.67;;;;;;;;;;20945401;28;20559;-72
2022/06/05 12:12:04;;;;;;;2.67;2.30;;;;;;;;;;20956765;28;20585;-72
2022/06/05 12:22:18;;;;;;;3.15;2.20;;;;;;;;;;20956341;28;20226;-72
2022/06/05 12:32:41;;;;;;;2.70;1.73;;;;;;;;;;20961582;28;20205;-73
2022/06/05 12:43:02;;;;;;;2.15;1.73;;;23.60;99.90;;;;;;20937595;28;20213;-73
2022/06/05 12:53:12;;;;;;;2.75;1.70;;;;;;;;;;20972229;28;20223;-72
2022/06/05 13:03:33;;;;;;;2.30;1.60;;;;;;;;;;20969091;28;20270;-72
2022/06/05 13:13:55;;;;;;;3.53;1.30;;;24.50;99.90;;;;;;20967313;28;20218;-72
2022/06/05 13:24:13;;;;;;;3.10;1.20;;;24.80;99.90;;;;;;20950497;28;20229;-73
2022/06/05 13:34:18;;;;;;;1.55;1.00;;;;;;;;;;20935406;28;20683;-71
2022/06/05 13:44:22;;;;;;;1.67;0.80;;;24.50;99.90;;;;;;20947200;28;20449;-71
2022/06/05 13:54:32;;;;;;;1.50;0.80;;;24.50;99.90;;;;;;20930638;28;20219;-72
2022/06/05 14:04:35;;;;;;;2.35;0.98;;;;;;;;;;20934482;28;20224;-70
2022/06/05 14:14:43;;;;;;;0.70;0.50;;;;;;;;;;20941835;28;20269;-72
2022/06/05 14:24:46;;;;;;;1.25;0.50;;;;;;;;;;20957280;28;20698;-72
2022/06/05 14:34:48;;;;;;;0.47;0.40;;;;;;;;;;20956702;28;20219;-72
2022/06/05 14:44:50;;;;;;;0.52;0.40;;;;;;;;;;20954598;28;20229;-72
2022/06/05 15:05:36;;;;;;;0.40;0.28;;;;;;;;;;20957258;28;20279;-71
2022/06/05 15:15:41;;;;;;;0.40;0.30;;;;;;;;;;20976865;28;20379;-73
2022/06/05 15:25:51;;;;;;;0.85;0.52;;;;;;;;;;20959239;28;20231;-73
2022/06/05 15:35:53;;;;;;;0.47;0.30;;;;;;;;;;20942506;28;20837;-72
2022/06/05 15:46:24;;;;;;;0.30;0.30;;;22.80;99.90;;;;;;20941206;28;20223;-72
2022/06/05 15:56:29;;;;;;;0.50;0.40;;;;;;;;;;20964383;28;20249;-72
2022/06/05 16:06:45;;;;;;;1.10;0.45;;;;;;;;;;21029040;28;20255;-72
2022/06/05 16:17:10;;;;;;;0.30;0.30;;;;;;;;;;20995282;28;20247;-72
2022/06/05 16:27:35;;;;;;;0.22;0.22;;;;;;;;;;20986592;28;20717;-72
2022/06/05 16:37:57;;;;;;;0.52;0.30;;;;;;;;;;21021002;28;20225;-71
2022/06/05 16:48:09;;;;;;;0.20;0.20;;;23.60;99.90;;;;;;20966096;28;20702;-72
2022/06/05 16:58:18;;;;;;;0.40;0.25;;;;;;;;;;21039017;28;20249;-71
2022/06/05 17:08:50;;;;;;;0.40;0.30;;;23.60;99.90;;;;;;20946140;28;20282;-70
2022/06/05 17:18:54;;;;;;;1.95;0.20;;;23.10;99.90;;;;;;20938753;28;20214;-71
2022/06/05 17:29:03;;;;;;;0.20;0.20;;;;;;;;;;21006856;28;20226;-72
2022/06/05 17:39:14;;;;;;;0.30;0.22;;;;;;;;;;20962948;28;20221;-73
2022/06/05 17:49:19;;;;;;;0.65;0.20;;;;;;;;;;21041962;22;20282;-77
2022/06/05 17:59:29;;;;;;;0.20;0.20;;;;;;;;;;21057745;28;20275;-79
2022/06/05 18:09:31;;;;;;;0.20;0.20;;;;;;;;;;21001867;28;20215;-78
2022/06/05 18:19:39;;;;;;;0.30;0.20;;;22.10;99.90;;;;;;21039561;28;20216;-78
2022/06/05 18:29:46;;;;;;;0.10;0.10;;;;;;;;;;21028821;28;20215;-78
2022/06/05 18:39:52;;;;;;;0.32;0.20;;;;;;;;;;21041109;28;20210;-78
2022/06/05 18:49:55;;;;;;;0.20;0.20;;;22.00;99.90;;;;;;21019993;28;20214;-78
2022/06/05 19:00:31;;;;;;;0.63;0.20;;;;;;;;;;21007239;28;20263;-78
2022/06/05 19:10:36;;;;;;;0.40;0.20;;;;;;;;;;20934746;28;20630;-79
2022/06/05 19:20:41;;;;;;;0.22;0.20;;;;;;;;;;20978142;28;20225;-77
2022/06/05 19:30:43;;;;;;;0.20;0.20;;;;;;;;;;21046123;28;20200;-78
2022/06/05 19:41:07;;;;;;;0.43;0.20;;;;;;;;;;21053803;28;20268;-77
2022/06/05 19:51:10;;;;;;;0.20;0.20;;;;;;;;;;21042286;28;20221;-78
2022/06/05 20:01:34;;;;;;;0.50;0.30;;;21.30;99.90;;;;;;21056987;28;20284;-77
2022/06/05 20:11:37;;;;;;;0.65;0.50;;;;;;;;;;21060087;28;20352;-79
2022/06/05 20:21:40;;;;;;;0.70;0.30;;;;;;;;;;21058202;28;20218;-78
2022/06/05 20:32:00;;;;;;;0.88;0.55;;;20.90;99.90;;;;;;21027942;28;20260;-78
2022/06/05 20:42:23;;;;;;;0.20;0.20;;;21.00;99.90;;;;;;21035600;28;20621;-78
2022/06/05 20:52:29;;;;;;;0.38;0.30;;;;;;;;;;21044457;28;20343;-78
2022/06/05 21:23:14;;;;;;;0.37;0.23;;;;;;;;;;21059202;28;20981;-80
2022/06/05 21:33:16;;;;;;;0.40;0.20;;;;;;;;;;21072797;28;20207;-80
2022/06/05 21:43:21;;;;;;;0.50;0.37;;;;;;;;;;21040388;28;20627;-78
2022/06/05 21:53:30;;;;;;;0.37;0.37;;;20.60;99.90;;;;;;21016526;28;1110579;-78
2022/06/05 22:03:33;;;;;;;0.40;0.30;;;;;;;;;;21052067;28;20230;-78
2022/06/05 22:13:35;;;;;;;0.90;0.60;;;;;;;;;;21070133;28;20591;-78
2022/06/05 22:23:37;;;;;;;0.83;0.40;;;;;;;;;;21014063;28;20223;-77
2022/06/05 22:33:59;;;;;;;1.03;0.57;;;;;;;;;;20901727;28;20232;-77
2022/06/05 22:44:01;;;;;;;1.27;0.60;;;;;;;;;;20900016;28;20280;-77
2022/06/05 22:54:03;;;;;;;1.33;0.60;;;20.40;99.90;;;;;;20937629;28;20240;-77
2022/06/05 23:04:05;;;;;;;0.90;0.50;;;;;;;;;;21091441;28;20681;-77
2022/06/05 23:14:07;;;;;;;0.80;0.60;;;;;;;;;;21062915;28;20251;-77
2022/06/05 23:24:10;;;;;;;1.53;0.60;;;;;;;;;;21035638;28;20233;-77
2022/06/05 23:34:12;;;;;;;2.10;0.80;;;20.10;99.90;;;;;;21078136;28;20220;-78
2022/06/05 23:44:15;;;;;;;1.10;0.70;;;;;;;;;;21059267;28;20228;-77
2022/06/05 23:54:18;;;;;;;1.57;0.90;;;;;;;;;;21043908;22;20379;-74
